History for KNYNEWYO591

Greenwich Village, NY, New York, NY — Current Conditions
Daily Summary for December 16, 2017
  Current: High: Low: Average:
Temperature: 37.0°F 37.0°F 23.5°F 30.2°F
Dew Point: 24.3°F 24.3°F 16.9°F 19.3°F
Humidity: 65% 89% 62% 74%
Wind Speed: 4.3mph 6.9mph - 4.7mph
Wind Gust: 15.0mph 15.0mph - -
Wind: West - - West
Pressure: 29.78in 29.85in 29.69in -
Precipitation: 0.00in      
Statistics for the rest of the month
    High: Low: Average:
Temperature:   62.2°F 20.7°F 38.9°F
Dew Point:   56.5°F 4.6°F 26.5°F
Humidity:   97.0% 36.0% 66.5%
Wind Speed:   10.5mph from the West - 3.2mph
Wind Gust:   28.0mph from the West - -
Wind:   - - WSW
Pressure:   30.24in 29.20in -
Precipitation:   0.45in    
KNYNEWYO591 Weather Graph
Tabular Data for December 16, 2017
Time Temp. Windchill Dew Point Pressure Wind Gust Humidity Rainfall
00:06 23.9°F 17.7°F 18.7°F 29.69in 12.5mph 85% -
00:08 23.7°F 17.4°F 19.2°F 29.69in 12.5mph 87% -
00:47 23.5°F 17.2°F 19.4°F 29.70in 12.5mph 88% -
01:06 23.5°F 17.2°F 18.7°F 29.70in 12.5mph 86% -
01:27 23.5°F 17.2°F 19.8°F 29.70in 12.5mph 89% -
01:46 23.7°F 17.4°F 18.9°F 29.70in 12.5mph 86% -
02:08 23.9°F 17.7°F 18.7°F 29.71in 12.5mph 85% -
02:30 24.4°F 18.3°F 18.1°F 29.73in 12.5mph 82% -
03:07 25.2°F 19.2°F 18.1°F 29.73in 12.5mph 80% -
03:29 25.5°F 19.6°F 17.8°F 29.75in 12.5mph 78% -
03:48 25.7°F 19.8°F 17.6°F 29.75in 12.5mph 77% -
04:07 25.7°F 19.8°F 17.4°F 29.75in 12.5mph 76% -
04:27 25.7°F 19.8°F 17.4°F 29.75in 12.5mph 76% -
04:47 25.7°F 19.8°F 17.4°F 29.76in 12.5mph 76% -
05:07 25.5°F 19.6°F 17.2°F 29.76in 12.5mph 76% -
05:27 25.5°F 19.6°F 17.2°F 29.77in 12.5mph 76% -
05:32 25.7°F 19.8°F 17.4°F 29.78in 12.5mph 76% -
06:06 25.9°F 20.0°F 16.9°F 29.78in 12.5mph 74% -
06:28 25.9°F 20.0°F 17.6°F 29.79in 12.5mph 76% -
06:32 26.1°F 20.3°F 17.6°F 29.79in 12.5mph 76% -
07:07 26.1°F 20.3°F 17.6°F 29.81in 12.5mph 76% -
07:29 26.2°F 20.4°F 17.6°F 29.81in 12.5mph 75% -
07:48 26.4°F 20.6°F 17.8°F 29.83in 12.5mph 75% -
08:07 26.8°F 22.3°F 17.8°F 29.83in 9.4mph 74% -
08:26 27.1°F 22.7°F 18.0°F 29.84in 8.7mph 74% -
08:49 27.5°F 23.1°F 19.0°F 29.85in 8.7mph 76% -
09:15 28.4°F 23.6°F 18.5°F 29.85in 11.9mph 72% -
09:36 29.1°F 23.8°F 18.5°F 29.85in 10.5mph 70% -
09:56 30.0°F 24.8°F 19.4°F 29.85in 10.5mph 70% -
10:48 31.6°F 26.7°F 20.3°F 29.84in 10.5mph 68% -
10:55 31.6°F 27.9°F 19.9°F 29.84in 11.2mph 67% -
11:15 32.4°F 29.6°F 20.7°F 29.82in 8.1mph 67% -
11:25 32.7°F 28.6°F 20.8°F 29.82in 9.8mph 67% -
11:56 33.4°F 27.3°F 20.5°F 29.80in 14.3mph 64% -
12:16 33.8°F 28.7°F 21.6°F 29.79in 13.6mph 66% -
12:26 34.2°F 29.2°F 21.6°F 29.78in 13.6mph 65% -
13:06 35.1°F 30.2°F 22.1°F 29.78in 13.6mph 64% -
13:27 35.8°F 33.5°F 22.8°F 29.77in 8.7mph 64% -
13:47 36.1°F 32.5°F 22.5°F 29.77in 15.0mph 62% 0.00in
14:08 36.5°F 33.0°F 23.0°F 29.78in 15.0mph 63% 0.00in
14:47 36.7°F 33.2°F 23.9°F 29.78in 15.0mph 65% -
15:09 37.0°F 33.6°F 24.3°F 29.78in 15.0mph 65% -
Comma Delimited File
Powered by Weather Underground, Inc.